• Join FlightAware (Why Join?)
  • Login
  • US Flag 
11:47AM EST


 

Airport Tracker/Info


-or-


 

Live Flight TrackerFlight Track Log ✈ AAL1001 ✈ 11-Apr-2014 ✈ KDFW - KTUS

Flight Track Log - Related Links

Times and Time Zones

All times are in EDT time to prevent confusion due to time zone crossing. See the AAL1001 flight status page for this flight to view local times or setup timezone preferences in your user account.

Time Position Orientation Groundspeed Altitude Reporting Facility
EDT Latitude Longitude Course Direction KTS MPH feet Rate Location/Type
12:34AM 32.8833 -97.0500 275° West 168 193 1,300  Level Dallas / Fort Worth TRACON
12:37AM 32.7753 -97.1736 270° West 257 296 8,200 2,265 Climbing Fort Worth Center
12:38AM 32.7032 -97.5082 275° West  Level FlightAware Approximate
12:38AM 32.7825 -97.2647 275° West 277 319 10,700  Level Fort Worth Center
12:39AM 32.7136 -97.6437 275° West  Level FlightAware Approximate
12:39AM 32.7858 -97.3675 272° West 312 359 12,500  Level Fort Worth Center
12:40AM 32.7819 -97.4800 268° West 338 389 14,700 2,231 Climbing Fort Worth Center
12:41AM 32.7853 -97.5992 272° West 355 409 17,000 2,231 Climbing Fort Worth Center
12:42AM 32.7869 -97.7219 271° West 365 420 19,200 1,983 Climbing Fort Worth Center
12:43AM 32.8926 -97.9923 270° West  Level Estimated
12:43AM 32.7875 -97.8472 270° West 373 429 21,000  Level Fort Worth Center
12:44AM 32.7889 -97.9783 271° West 395 455 22,600 1,650 Climbing Fort Worth Center
12:45AM 32.7917 -98.1011 272° West 402 463 24,300 1,736 Climbing Fort Worth Center
12:46AM 32.7922 -98.2328 270° West 402 463 26,100 1,587 Climbing Fort Worth Center
12:47AM 32.7922 -98.3653 270° West 402 463 27,500 1,240 Climbing Fort Worth Center
12:48AM 32.7931 -98.4892 270° West 405 466 28,600 1,041 Climbing Fort Worth Center
12:49AM 32.7950 -98.6269 271° West 414 476 29,600 1,150 Climbing Fort Worth Center
12:50AM 32.7944 -98.7669 270° West 423 487 30,900 1,091 Climbing Fort Worth Center
12:51AM 32.7942 -98.9058 270° West 423 487 31,800 545 Climbing Fort Worth Center
12:52AM 32.7944 -99.0436 270° West 423 487 32,000 99 Climbing Fort Worth Center
12:53AM 32.7950 -99.2100 270° West 422 486 32,000  Level Fort Worth Center
12:54AM 32.7939 -99.3467 269° West 419 482 32,000  Level Fort Worth Center
12:55AM 32.7925 -99.4833 269° West 417 480 32,000  Level Fort Worth Center
12:56AM 32.7933 -99.6192 270° West 416 479 32,000  Level Fort Worth Center
12:57AM 32.7928 -99.7542 270° West 415 478 32,000  Level Fort Worth Center
12:58AM 32.7944 -99.8858 271° West 415 478 32,000  Level Fort Worth Center
12:59AM 32.7911 -100.0189 268° West 414 476 32,000  Level Fort Worth Center
01:00AM 32.7900 -100.1531 269° West 414 476 32,000  Level Fort Worth Center
01:01AM 32.7892 -100.2864 270° West 411 473 32,000  Level Fort Worth Center
01:02AM 32.7881 -100.4181 269° West 405 466 32,000  Level Fort Worth Center
01:03AM 32.7867 -100.5481 269° West 402 463 32,000  Level Fort Worth Center
01:04AM 32.7853 -100.6786 269° West 400 460 32,000  Level Fort Worth Center
01:05AM 32.7833 -100.8086 269° West 399 459 32,000  Level Fort Worth Center
01:06AM 32.7803 -100.9408 268° West 399 459 32,000  Level Fort Worth Center
01:07AM 32.7781 -101.0708 269° West 398 458 32,000  Level Fort Worth Center
01:08AM 32.7767 -101.2019 269° West 398 458 32,000  Level Fort Worth Center
01:09AM 32.7733 -101.3317 268° West 398 458 32,000  Level Fort Worth Center
01:10AM 32.7714 -101.4622 269° West 397 457 32,000 -50 Level Fort Worth Center
01:11AM 32.7683 -101.6172 269° West 396 456 31,900  Descending Fort Worth Center
01:12AM 32.7661 -101.7192 269° West 387 445 32,000 50 Climbing Fort Worth Center
01:13AM 32.7633 -101.8467 269° West 387 445 32,000  Level Fort Worth Center
01:14AM 32.7603 -101.9744 268° West 387 445 32,000  Level Fort Worth Center
01:15AM 32.7567 -102.1256 268° West 387 445 32,000  Level Fort Worth Center
01:16AM 32.7531 -102.2531 268° West 387 445 32,000  Level Fort Worth Center
01:17AM 32.7517 -102.3775 269° West 386 444 32,000  Level Fort Worth Center
01:18AM 32.7483 -102.5033 268° West 386 444 32,000  Level Fort Worth Center
01:19AM 32.7433 -102.6294 267° West 387 445 32,000  Level Fort Worth Center
01:20AM 32.7400 -102.7567 268° West 387 445 32,000  Level Fort Worth Center
01:21AM 32.7364 -102.8831 268° West 387 445 32,000  Level Fort Worth Center
01:22AM 32.7325 -103.0103 268° West 387 445 32,000  Level Fort Worth Center
01:23AM 32.7267 -103.1378 267° West 387 445 32,000  Level Fort Worth Center
01:24AM 32.7236 -103.2650 268° West 387 445 32,000  Level Fort Worth Center
01:25AM 32.7194 -103.3917 268° West 386 444 32,000  Level Fort Worth Center
01:26AM 32.7136 -103.5194 267° West 388 447 32,000  Level Fort Worth Center
01:27AM 32.7114 -103.6467 269° West 388 447 32,000  Level Fort Worth Center
01:28AM 32.7419 -103.7694 287° West 392 451 32,000  Level Fort Worth Center
01:30AM 32.7836 -103.9258 288° West 388 447 32,000  Level Albuquerque Center
01:31AM 32.8144 -104.0475 287° West 386 444 32,000  Level Albuquerque Center
01:32AM 32.8456 -104.1692 287° West 385 443 32,000  Level Albuquerque Center
01:33AM 32.8806 -104.2992 288° West 383 441 32,000  Level Albuquerque Center
01:34AM 32.9131 -104.4203 288° West 383 441 32,000  Level Albuquerque Center
01:35AM 32.9447 -104.5419 287° West 384 442 32,000  Level Albuquerque Center
01:36AM 32.9792 -104.6628 289° West 384 442 32,000  Level Albuquerque Center
01:37AM 33.0119 -104.7831 288° West 383 441 32,000  Level Albuquerque Center
01:38AM 33.0444 -104.9044 288° West 383 441 32,000  Level Albuquerque Center
01:39AM 33.0769 -105.0258 288° West 383 441 32,000  Level Albuquerque Center
01:40AM 33.0797 -105.1511 272° West 388 447 32,000  Level Albuquerque Center
01:41AM 33.0661 -105.2783 263° West 389 448 32,000  Level Albuquerque Center
01:42AM 33.0497 -105.4050 261° West 389 448 32,000  Level Albuquerque Center
01:43AM 33.0333 -105.5328 261° West 389 448 32,000 -50 Level Albuquerque Center
01:44AM 33.0222 -105.6428 263° West 390 449 31,900 -50 Descending Albuquerque Center
01:45AM 33.0067 -105.7714 262° West 396 456 31,900  Level Albuquerque Center
01:46AM 32.9900 -105.8978 261° West 393 452 31,900  Level Albuquerque Center
01:47AM 32.9706 -106.0514 261° West 393 452 31,900  Level Albuquerque Center
01:48AM 32.9539 -106.1764 261° West 391 450 31,900  Level Albuquerque Center
01:49AM 32.9383 -106.3028 262° West 390 449 31,900  Level Albuquerque Center
01:50AM 32.9217 -106.4289 261° West 390 449 31,900  Level Albuquerque Center
01:51AM 32.9050 -106.5528 261° West 387 445 31,900  Level Albuquerque Center
01:52AM 32.8872 -106.6797 261° West 387 445 31,900  Level Albuquerque Center
01:53AM 32.8714 -106.8058 262° West 387 445 31,900  Level Albuquerque Center
01:54AM 32.8550 -106.9283 261° West 386 444 31,900  Level Albuquerque Center
01:55AM 32.8372 -107.0511 260° West 384 442 31,900  Level Albuquerque Center
01:56AM 32.8203 -107.1736 261° West 383 441 31,900  Level Albuquerque Center
01:57AM 32.8028 -107.2969 260° West 382 440 31,900  Level Albuquerque Center
01:58AM 32.7842 -107.4192 260° West 382 440 31,900  Level Albuquerque Center
01:59AM 32.7675 -107.5425 261° West 382 440 31,900  Level Albuquerque Center
02:00AM 32.7494 -107.6644 260° West 382 440 31,900  Level Albuquerque Center
02:01AM 32.7322 -107.7872 261° West 381 438 31,900  Level Albuquerque Center
02:02AM 32.7147 -107.9106 260° West 381 438 31,900 50 Level Albuquerque Center
02:03AM 32.6942 -108.0481 260° West 380 437 32,000 50 Climbing Albuquerque Center
02:04AM 32.6769 -108.1717 261° West 380 437 32,000  Level Albuquerque Center
02:05AM 32.6586 -108.2922 260° West 376 433 32,000  Level Albuquerque Center
02:06AM 32.6414 -108.4133 260° West 375 432 32,000  Level Albuquerque Center
02:07AM 32.6228 -108.5356 260° West 375 432 32,000  Level Albuquerque Center
02:08AM 32.6044 -108.6589 260° West 375 432 32,000  Level Albuquerque Center
02:09AM 32.5858 -108.7819 260° West 375 432 32,000  Level Albuquerque Center
02:10AM 32.5667 -108.9047 260° West 376 433 32,000  Level Albuquerque Center
02:11AM 32.5486 -109.0264 260° West 376 433 32,000  Level Albuquerque Center
02:12AM 32.5297 -109.1478 260° West 376 433 32,000  Level Albuquerque Center
02:13AM 32.5114 -109.2694 260° West 375 432 32,000 -50 Level Albuquerque Center
02:14AM 32.4925 -109.3917 260° West 375 432 31,900 -1,100 Descending Albuquerque Center
02:15AM 32.4733 -109.5128 259° West 374 430 29,800 -2,182 Descending Albuquerque Center
02:16AM 32.4539 -109.6381 260° West 377 434 27,500 -2,231 Descending Albuquerque Center
02:17AM 32.4336 -109.7686 260° West 393 452 25,300 -2,281 Descending Albuquerque Center
02:18AM 32.4144 -109.8933 260° West 390 449 22,900 -2,430 Descending Albuquerque Center
02:19AM 32.3897 -110.0111 256° West 378 435 20,400 -2,500 Descending Albuquerque Center
02:20AM 32.3742 -110.1319 261° West 375 432 17,900 -2,618 Descending Albuquerque Center
02:21AM 32.3564 -110.2347 258° West 361 415 15,600 -2,459 Descending Albuquerque Center
02:21AM 32.3564 -110.2461 270° West 359 413 15,400 -1,778 Descending Albuquerque Center
02:22AM 32.3408 -110.3375 259° West 351 404 14,000 -1,400 Descending Albuquerque Center
02:22AM 32.3392 -110.3494 261° West 353 406 14,000  Level Albuquerque Center
02:23AM 32.3233 -110.4333 257° West 302 348 14,000  Level Albuquerque Center
02:23AM 32.3225 -110.4458 265° West 312 359 14,000 -689 Level Albuquerque Center
02:24AM 32.3081 -110.5286 258° West 290 334 13,300 -787 Descending Albuquerque Center
02:24AM 32.3081 -110.5386 270° West 291 335 13,200 -1,500 Descending Albuquerque Center
02:25AM 32.2658 -110.5956 229° Southwest 278 320 11,800 -1,600 Descending Albuquerque Center
02:25AM 32.2606 -110.5981 202° Southwest 277 319 11,600 -1,636 Descending Albuquerque Center
02:26AM 32.1986 -110.6242 200° South 277 319 10,300 -1,869 Descending Albuquerque Center
02:26AM 32.1808 -110.6333 204° Southwest 277 319 9,700 -1,300 Descending Albuquerque Center
02:27AM 32.1342 -110.6672 212° Southwest 265 305 9,000 -700 Descending Albuquerque Center
02:27AM 32.1253 -110.6742 213° Southwest 274 315 9,000 -885 Level Albuquerque Center
02:28AM 32.0772 -110.7053 209° Southwest 236 272 8,100 -900 Descending Albuquerque Center
02:28AM 32.0622 -110.7186 217° Southwest 257 296 8,100 -1,180 Level Albuquerque Center
02:29AM 32.0236 -110.7475 212° Southwest 225 259 6,900 -1,200 Descending Albuquerque Center
02:30AM 32.0031 -110.8061 248° West 205 236 6,100 -1,240 Descending Albuquerque Center
02:31AM 32.0422 -110.8533 314° West 204 235 4,400 -1,388 Descending Albuquerque Center
02:32AM 32.0761 -110.8944 314° West 175 201 3,300 -1,100 Descending Albuquerque Center